createdAt,value
2018-10-03T00:00:51.330Z,81.17
2018-10-03T00:03:20.701Z,81.28
2018-10-03T00:05:49.955Z,81.51
2018-10-03T00:08:19.254Z,81.41
2018-10-03T00:10:48.739Z,81.63
2018-10-03T00:13:18.062Z,81.37
2018-10-03T00:15:47.322Z,82.02
2018-10-03T00:18:16.583Z,81.86
2018-10-03T00:20:45.880Z,81.53
2018-10-03T00:23:15.229Z,81.14
2018-10-03T00:25:44.486Z,81.52
2018-10-03T00:28:13.827Z,81.16
2018-10-03T00:30:43.106Z,81.19
2018-10-03T00:33:12.379Z,80.92
2018-10-03T00:35:41.718Z,80.29
2018-10-03T00:38:11.074Z,80.32
2018-10-03T00:40:40.391Z,81.30
2018-10-03T00:43:09.866Z,83.90
2018-10-03T00:45:39.161Z,85.14
2018-10-03T00:48:09.070Z,85.54
2018-10-03T00:50:38.694Z,85.46
2018-10-03T00:53:08.057Z,85.13
2018-10-03T00:55:37.365Z,83.38
2018-10-03T00:58:06.851Z,83.68
2018-10-03T01:00:36.106Z,83.30
2018-10-03T01:03:05.328Z,83.99
2018-10-03T01:05:34.641Z,83.83
2018-10-03T01:08:03.978Z,83.47
2018-10-03T01:10:33.317Z,83.43
2018-10-03T01:13:02.642Z,83.52
2018-10-03T01:15:31.938Z,83.55
2018-10-03T01:18:01.290Z,84.00
2018-10-03T01:20:30.627Z,83.56
2018-10-03T01:22:59.987Z,83.82
2018-10-03T01:25:29.293Z,84.72
2018-10-03T01:27:58.618Z,84.62
2018-10-03T01:30:27.886Z,84.83
2018-10-03T01:32:57.182Z,84.91
2018-10-03T01:35:26.521Z,84.13
2018-10-03T01:37:55.838Z,84.77
2018-10-03T01:40:25.162Z,84.34
2018-10-03T01:42:54.524Z,83.69
2018-10-03T01:45:23.992Z,83.58
2018-10-03T01:47:53.354Z,83.21
2018-10-03T01:50:22.646Z,83.58
2018-10-03T01:52:51.960Z,83.80
2018-10-03T01:55:21.258Z,84.46
2018-10-03T01:57:50.610Z,84.94
2018-10-03T02:00:19.998Z,84.72
2018-10-03T02:02:49.338Z,84.92
2018-10-03T02:05:18.656Z,84.68
2018-10-03T02:07:47.954Z,84.24
2018-10-03T02:10:17.315Z,84.54
2018-10-03T02:12:46.622Z,84.33
2018-10-03T02:15:15.980Z,84.05
2018-10-03T02:17:45.275Z,83.74
2018-10-03T02:20:14.574Z,83.72
2018-10-03T02:22:43.881Z,84.40
2018-10-03T02:25:13.206Z,84.59
2018-10-03T02:27:42.454Z,84.47
2018-10-03T02:30:11.729Z,84.56
2018-10-03T02:32:41.113Z,85.23
2018-10-03T02:35:10.471Z,84.84
2018-10-03T02:37:39.813Z,83.54
2018-10-03T02:40:09.146Z,83.38
2018-10-03T02:42:38.413Z,82.79
2018-10-03T02:45:07.356Z,83.05
2018-10-03T02:47:36.685Z,83.15
2018-10-03T02:50:05.988Z,83.00
2018-10-03T02:52:35.260Z,82.83
2018-10-03T02:55:04.543Z,83.03
2018-10-03T02:57:33.861Z,82.59
2018-10-03T03:00:03.158Z,83.52
2018-10-03T03:02:32.442Z,83.84
2018-10-03T03:05:01.792Z,84.41
2018-10-03T03:07:31.127Z,85.02
2018-10-03T03:10:00.418Z,84.95
2018-10-03T03:12:29.813Z,85.82
2018-10-03T03:14:59.333Z,85.83
2018-10-03T03:17:28.651Z,86.37
2018-10-03T03:19:57.942Z,86.96
2018-10-03T03:22:27.239Z,87.26
2018-10-03T03:24:56.611Z,87.44
2018-10-03T03:27:25.958Z,88.29
2018-10-03T03:29:55.257Z,88.08
2018-10-03T03:32:24.611Z,88.19
2018-10-03T03:34:53.953Z,88.80
2018-10-03T03:37:23.694Z,88.96
2018-10-03T03:39:52.978Z,89.04
2018-10-03T03:42:22.265Z,89.04
2018-10-03T03:44:51.651Z,89.47
2018-10-03T03:47:20.889Z,89.36
2018-10-03T03:49:50.121Z,89.09
2018-10-03T03:52:19.417Z,89.44
2018-10-03T03:54:48.659Z,89.37
2018-10-03T03:57:17.950Z,89.69
2018-10-03T03:59:47.212Z,90.06
2018-10-03T04:02:16.586Z,89.29
2018-10-03T04:04:45.879Z,89.75
2018-10-03T04:07:15.286Z,89.38
2018-10-03T04:09:44.502Z,89.24
2018-10-03T04:12:13.828Z,88.22
2018-10-03T04:14:43.136Z,87.92
2018-10-03T04:17:12.419Z,87.77
2018-10-03T04:19:41.694Z,87.25
2018-10-03T04:22:10.959Z,87.53
2018-10-03T04:24:40.255Z,87.15
2018-10-03T04:27:09.536Z,86.63
2018-10-03T04:29:45.436Z,86.88
2018-10-03T04:32:14.704Z,86.59
2018-10-03T04:34:43.998Z,86.18
2018-10-03T04:37:13.276Z,86.60
2018-10-03T04:39:42.562Z,86.72
2018-10-03T04:42:11.890Z,85.97
2018-10-03T04:44:41.169Z,86.37
2018-10-03T04:47:10.459Z,86.73
2018-10-03T04:49:39.730Z,87.00
2018-10-03T04:52:09.007Z,87.47
2018-10-03T04:54:38.370Z,87.84
2018-10-03T04:57:07.679Z,88.03
2018-10-03T04:59:36.959Z,88.23
2018-10-03T05:02:06.333Z,88.25
2018-10-03T05:04:35.587Z,88.38
2018-10-03T05:07:04.852Z,88.85
2018-10-03T05:09:34.166Z,89.33
2018-10-03T05:12:03.607Z,89.41
2018-10-03T05:14:33.708Z,89.96
2018-10-03T05:17:03.025Z,90.07
2018-10-03T05:19:32.898Z,90.04
2018-10-03T05:22:02.327Z,90.10
2018-10-03T05:24:31.987Z,90.14
2018-10-03T05:27:01.281Z,90.40
2018-10-03T05:29:30.602Z,90.15
2018-10-03T05:31:59.922Z,90.25
2018-10-03T05:34:29.191Z,89.84
2018-10-03T05:36:58.512Z,90.63
2018-10-03T05:39:27.839Z,90.47
2018-10-03T05:41:57.178Z,91.01
2018-10-03T05:44:26.549Z,90.79
2018-10-03T05:46:55.942Z,90.93
2018-10-03T05:49:25.320Z,90.54
2018-10-03T05:51:54.618Z,90.27
2018-10-03T05:54:24.018Z,90.34
2018-10-03T05:56:53.386Z,90.34
2018-10-03T05:59:22.706Z,90.25
2018-10-03T06:01:52.283Z,90.15
2018-10-03T06:04:21.623Z,90.07
2018-10-03T06:06:50.926Z,89.70
2018-10-03T06:09:20.210Z,89.57
2018-10-03T06:11:49.533Z,89.82
2018-10-03T06:14:18.839Z,89.18
2018-10-03T06:16:48.099Z,88.57
2018-10-03T06:19:17.441Z,89.30
2018-10-03T06:21:46.755Z,89.46
2018-10-03T06:24:21.683Z,89.47
2018-10-03T06:26:50.988Z,89.54
2018-10-03T06:29:20.300Z,89.88
2018-10-03T06:31:49.606Z,90.02
2018-10-03T06:34:19.006Z,90.18
2018-10-03T06:36:48.291Z,91.23
2018-10-03T06:39:17.687Z,90.44
2018-10-03T06:41:46.955Z,89.88
2018-10-03T06:44:16.287Z,90.14
2018-10-03T06:46:45.559Z,90.65
2018-10-03T06:49:14.910Z,90.95
2018-10-03T06:51:44.174Z,91.76
2018-10-03T06:54:13.503Z,93.21
2018-10-03T06:56:43.701Z,94.00
2018-10-03T06:59:13.038Z,94.94
2018-10-03T07:01:43.077Z,96.09
2018-10-03T07:04:12.447Z,96.62
2018-10-03T07:06:42.226Z,96.27
2018-10-03T07:09:11.527Z,95.92
2018-10-03T07:11:41.282Z,98.70
2018-10-03T07:14:10.628Z,100.00
2018-10-03T07:16:39.853Z,100.00
2018-10-03T07:19:09.209Z,100.00
2018-10-03T07:21:38.628Z,100.00
2018-10-03T07:24:08.841Z,100.00
2018-10-03T07:26:38.497Z,100.00
2018-10-03T07:29:08.178Z,100.00
2018-10-03T07:31:37.841Z,100.00
2018-10-03T07:34:07.369Z,100.00
2018-10-03T07:36:37.278Z,100.00
2018-10-03T07:39:08.918Z,100.00
2018-10-03T07:41:38.385Z,100.00
2018-10-03T07:44:07.960Z,100.00
2018-10-03T07:46:37.321Z,100.00
2018-10-03T07:49:08.107Z,100.00
2018-10-03T07:51:37.646Z,100.00
2018-10-03T07:54:09.363Z,100.00
2018-10-03T07:56:39.311Z,100.00
2018-10-03T07:59:09.300Z,100.00
2018-10-03T08:01:38.799Z,100.00
2018-10-03T08:04:08.684Z,100.00
2018-10-03T08:06:38.102Z,100.00
2018-10-03T08:09:09.666Z,100.00
2018-10-03T08:11:39.236Z,100.00
2018-10-03T08:14:08.632Z,100.00
2018-10-03T08:16:37.975Z,100.00
2018-10-03T08:19:07.362Z,100.00
2018-10-03T08:21:36.743Z,99.67
2018-10-03T08:24:05.893Z,99.21
2018-10-03T08:26:35.266Z,98.35
2018-10-03T08:29:04.702Z,98.03
2018-10-03T08:31:34.060Z,98.03
2018-10-03T08:34:03.460Z,97.45
2018-10-03T08:36:32.860Z,98.09
2018-10-03T08:39:02.306Z,98.36
2018-10-03T08:41:31.667Z,96.36
2018-10-03T08:44:01.030Z,94.45
2018-10-03T08:46:30.832Z,94.83
2018-10-03T08:49:00.250Z,93.92
2018-10-03T08:51:29.748Z,92.96
2018-10-03T08:53:59.066Z,90.96
2018-10-03T08:56:30.319Z,93.41
2018-10-03T08:58:59.675Z,92.74
2018-10-03T09:01:29.079Z,91.03
2018-10-03T09:03:58.488Z,89.21
2018-10-03T09:06:27.839Z,88.76
2018-10-03T09:08:57.207Z,88.83
2018-10-03T09:11:26.689Z,88.46
2018-10-03T09:13:56.151Z,87.15
2018-10-03T09:16:25.486Z,87.04
2018-10-03T09:18:54.831Z,85.33
2018-10-03T09:21:24.209Z,84.71
2018-10-03T09:23:53.880Z,83.91
2018-10-03T09:26:23.338Z,83.69
2018-10-03T09:28:52.801Z,82.29
2018-10-03T09:31:22.207Z,81.24
2018-10-03T09:33:51.632Z,79.28
2018-10-03T09:36:21.323Z,80.42
2018-10-03T09:38:50.657Z,79.17
2018-10-03T09:41:20.064Z,78.81
2018-10-03T09:43:49.451Z,77.86
2018-10-03T09:46:18.913Z,76.92
2018-10-03T09:48:48.344Z,76.96
2018-10-03T09:51:17.763Z,77.03
2018-10-03T09:53:47.271Z,73.62
2018-10-03T09:56:16.679Z,75.22
2018-10-03T09:58:46.069Z,73.73
2018-10-03T10:01:19.502Z,72.89
2018-10-03T10:03:49.029Z,74.94
2018-10-03T10:06:18.448Z,73.85
2018-10-03T10:08:47.935Z,71.40
2018-10-03T10:11:17.520Z,73.00
2018-10-03T10:13:47.069Z,71.15
2018-10-03T10:16:16.662Z,71.38
2018-10-03T10:18:46.111Z,70.31
2018-10-03T10:21:16.117Z,69.92
2018-10-03T10:23:45.518Z,70.92
2018-10-03T10:26:14.992Z,70.21
2018-10-03T10:28:44.407Z,68.36
2018-10-03T10:31:13.970Z,70.40
2018-10-03T10:33:43.370Z,69.20
2018-10-03T10:36:12.951Z,70.03
2018-10-03T10:38:42.386Z,69.06
2018-10-03T10:41:11.897Z,68.16
2018-10-03T10:43:41.260Z,68.66
2018-10-03T10:46:10.966Z,65.13
2018-10-03T10:48:40.744Z,65.63
2018-10-03T10:51:10.320Z,65.19
2018-10-03T10:53:39.887Z,65.15
2018-10-03T10:56:09.576Z,63.98
2018-10-03T10:58:39.145Z,64.03
2018-10-03T11:01:08.711Z,62.45
2018-10-03T11:03:38.368Z,61.88
2018-10-03T11:06:07.836Z,61.75
2018-10-03T11:08:37.699Z,60.66
2018-10-03T11:11:07.426Z,60.60
2018-10-03T11:13:37.154Z,61.01
2018-10-03T11:16:06.670Z,61.26
2018-10-03T11:18:35.994Z,61.84
2018-10-03T11:21:05.273Z,60.13
2018-10-03T11:23:34.785Z,61.43
2018-10-03T11:26:03.991Z,60.38
2018-10-03T11:28:33.284Z,60.87
2018-10-03T11:31:02.593Z,60.34
2018-10-03T11:33:32.039Z,61.25
2018-10-03T11:36:01.309Z,60.88
2018-10-03T11:38:30.628Z,61.18
2018-10-03T11:40:59.912Z,60.94
2018-10-03T11:43:29.180Z,61.96
2018-10-03T11:45:58.471Z,61.18
2018-10-03T11:48:27.777Z,60.98
2018-10-03T11:50:57.062Z,61.04
2018-10-03T11:53:26.374Z,60.44
2018-10-03T11:55:55.669Z,58.95
2018-10-03T11:58:24.981Z,60.01
2018-10-03T12:00:54.284Z,59.75
2018-10-03T12:03:23.727Z,63.04
2018-10-03T12:05:52.871Z,63.23
2018-10-03T12:08:22.158Z,64.15
2018-10-03T12:10:51.434Z,63.40
2018-10-03T12:13:20.696Z,64.52
2018-10-03T12:15:50.027Z,66.75
2018-10-03T12:18:19.331Z,66.23
2018-10-03T12:20:48.639Z,67.89
2018-10-03T12:23:17.911Z,66.97
2018-10-03T12:25:47.244Z,67.46
2018-10-03T12:28:16.532Z,65.91
2018-10-03T12:30:45.922Z,66.54
2018-10-03T12:33:15.241Z,66.25
2018-10-03T12:35:44.582Z,66.49
2018-10-03T12:38:13.878Z,66.43
2018-10-03T12:40:43.290Z,66.46
2018-10-03T12:43:12.646Z,66.71
2018-10-03T12:45:41.951Z,67.36
2018-10-03T12:48:11.210Z,68.06
2018-10-03T12:50:40.505Z,68.60
2018-10-03T12:53:09.772Z,67.74
2018-10-03T12:55:39.047Z,67.96
2018-10-03T12:58:08.315Z,68.17
2018-10-03T13:00:37.588Z,68.90
2018-10-03T13:03:06.833Z,69.69
2018-10-03T13:05:36.191Z,70.09
2018-10-03T13:08:05.478Z,69.29
2018-10-03T13:10:34.755Z,70.31
2018-10-03T13:13:04.016Z,70.20
2018-10-03T13:15:33.340Z,70.74
2018-10-03T13:18:02.621Z,70.53
2018-10-03T13:20:31.881Z,70.64
2018-10-03T13:23:01.136Z,70.39
2018-10-03T13:25:30.395Z,70.87
2018-10-03T13:27:59.786Z,71.23
2018-10-03T13:30:29.146Z,70.72
2018-10-03T13:32:58.329Z,70.92
2018-10-03T13:35:27.583Z,70.73
2018-10-03T13:37:56.863Z,70.54
2018-10-03T13:40:26.145Z,69.88
2018-10-03T13:42:55.464Z,69.81
2018-10-03T13:45:24.788Z,68.52
2018-10-03T13:47:54.061Z,67.28
2018-10-03T13:50:23.384Z,67.79
2018-10-03T13:52:52.771Z,68.93
2018-10-03T13:55:22.087Z,68.69
2018-10-03T13:57:51.385Z,69.35
2018-10-03T14:00:20.859Z,68.72
2018-10-03T14:02:50.181Z,68.76
2018-10-03T14:05:19.536Z,68.42
2018-10-03T14:07:49.139Z,68.69
2018-10-03T14:10:18.504Z,68.42
2018-10-03T14:12:47.802Z,67.96
2018-10-03T14:15:17.123Z,69.37
2018-10-03T14:17:46.442Z,69.58
2018-10-03T14:20:15.739Z,69.19
2018-10-03T14:22:45.050Z,69.46
2018-10-03T14:25:14.359Z,69.83
2018-10-03T14:27:43.719Z,69.65
2018-10-03T14:30:13.079Z,70.09
2018-10-03T14:32:42.481Z,69.46
2018-10-03T14:35:11.829Z,69.03
2018-10-03T14:37:41.155Z,68.92
2018-10-03T14:40:10.450Z,69.27
2018-10-03T14:42:39.794Z,68.09
2018-10-03T14:45:09.071Z,67.61
2018-10-03T14:47:38.371Z,68.83
2018-10-03T14:50:07.941Z,68.23
2018-10-03T14:52:37.358Z,67.39
2018-10-03T14:55:06.648Z,67.91
2018-10-03T14:57:35.947Z,68.05
2018-10-03T15:00:05.794Z,67.78
2018-10-03T15:02:35.248Z,67.66
2018-10-03T15:05:05.540Z,68.02
2018-10-03T15:07:34.818Z,68.93
2018-10-03T15:10:04.095Z,68.53
2018-10-03T15:12:33.380Z,68.59
2018-10-03T15:15:02.687Z,69.02
2018-10-03T15:17:31.987Z,68.58
2018-10-03T15:20:02.279Z,68.79
2018-10-03T15:22:31.663Z,69.37
2018-10-03T15:25:00.983Z,69.78
2018-10-03T15:27:40.208Z,70.61
2018-10-03T15:30:15.043Z,71.50
2018-10-03T15:32:53.398Z,71.92
2018-10-03T15:35:41.629Z,71.97
2018-10-03T15:38:37.169Z,71.95
2018-10-03T15:41:07.865Z,72.60
2018-10-03T15:43:38.452Z,73.17
2018-10-03T15:46:10.363Z,72.93
2018-10-03T15:48:42.593Z,72.94
2018-10-03T15:51:15.796Z,72.57
2018-10-03T15:53:46.380Z,72.98
2018-10-03T15:56:17.938Z,73.20
2018-10-03T15:58:48.837Z,73.36
2018-10-03T16:01:19.341Z,74.36
2018-10-03T16:03:49.907Z,73.98
2018-10-03T16:06:19.970Z,74.27
2018-10-03T16:08:50.364Z,74.64
2018-10-03T16:11:20.204Z,75.00
2018-10-03T16:13:50.405Z,75.25
2018-10-03T16:16:21.651Z,76.40
2018-10-03T16:19:43.696Z,76.61
2018-10-03T16:22:33.296Z,76.96
2018-10-03T16:36:27.948Z,78.41
2018-10-03T16:39:02.577Z,78.88
2018-10-03T16:42:30.801Z,78.77
2018-10-03T16:48:40.269Z,81.65
2018-10-03T16:53:45.651Z,83.18
2018-10-03T16:56:15.119Z,84.03
2018-10-03T16:58:44.567Z,84.86
2018-10-03T17:01:16.032Z,85.83
2018-10-03T17:03:45.503Z,86.37
2018-10-03T17:06:15.185Z,86.79
2018-10-03T17:08:44.540Z,87.50
2018-10-03T17:11:13.895Z,87.76
2018-10-03T17:14:47.615Z,88.13
2018-10-03T17:17:17.113Z,88.53
2018-10-03T17:19:46.513Z,89.21
2018-10-03T17:22:15.831Z,89.96
2018-10-03T17:24:45.448Z,90.87
2018-10-03T17:27:14.932Z,91.51
2018-10-03T17:29:44.231Z,92.34
2018-10-03T17:32:13.555Z,92.33
2018-10-03T17:34:42.850Z,93.02
2018-10-03T17:37:12.213Z,93.67
2018-10-03T17:39:41.566Z,94.17
2018-10-03T17:42:10.837Z,95.33
2018-10-03T17:44:40.115Z,95.02
2018-10-03T17:47:09.459Z,95.63
2018-10-03T17:49:38.739Z,95.97
2018-10-03T17:52:08.056Z,96.31
2018-10-03T17:54:37.313Z,96.15
2018-10-03T17:57:06.652Z,96.73
2018-10-03T17:59:36.004Z,96.43
2018-10-03T18:02:07.806Z,96.31
2018-10-03T18:04:37.155Z,96.74
2018-10-03T18:07:06.467Z,96.79
2018-10-03T18:09:35.861Z,96.53
2018-10-03T18:12:05.263Z,96.95
2018-10-03T18:14:34.692Z,96.73
2018-10-03T18:17:04.030Z,96.53
2018-10-03T18:19:33.351Z,97.07
2018-10-03T18:22:02.706Z,97.38
2018-10-03T18:24:31.977Z,97.22
2018-10-03T18:27:01.299Z,96.72
2018-10-03T18:29:30.632Z,96.80
2018-10-03T18:31:59.896Z,97.67
2018-10-03T18:34:29.196Z,97.19
2018-10-03T18:36:58.461Z,97.97
2018-10-03T18:39:27.814Z,98.01
2018-10-03T18:41:57.016Z,97.73
2018-10-03T18:44:26.254Z,98.01
2018-10-03T18:46:55.564Z,97.81
2018-10-03T18:49:24.752Z,98.27
2018-10-03T18:51:54.118Z,98.55
2018-10-03T18:54:24.271Z,98.60
2018-10-03T18:56:54.593Z,98.88
2018-10-03T18:59:24.614Z,99.56
2018-10-03T19:01:54.028Z,99.71
2018-10-03T19:04:23.439Z,100.00
2018-10-03T19:06:52.708Z,100.00
2018-10-03T19:09:22.204Z,100.00
2018-10-03T19:11:51.524Z,100.00
2018-10-03T19:14:20.859Z,100.00
2018-10-03T19:16:50.236Z,100.00
2018-10-03T19:19:19.688Z,100.00
2018-10-03T19:21:49.196Z,100.00
2018-10-03T19:24:18.690Z,100.00
2018-10-03T19:26:48.218Z,100.00
2018-10-03T19:29:18.147Z,100.00
2018-10-03T19:31:47.576Z,100.00
2018-10-03T19:34:16.967Z,100.00
2018-10-03T19:36:49.443Z,100.00
2018-10-03T19:39:19.018Z,100.00
2018-10-03T19:41:48.611Z,100.00
2018-10-03T19:44:18.104Z,100.00
2018-10-03T19:46:47.567Z,100.00
2018-10-03T19:49:17.045Z,100.00
2018-10-03T19:51:46.600Z,100.00
2018-10-03T19:54:16.078Z,100.00
2018-10-03T19:56:46.344Z,100.00
2018-10-03T19:59:17.008Z,100.00
2018-10-03T20:01:46.636Z,100.00
2018-10-03T20:04:16.560Z,100.00
2018-10-03T20:06:45.934Z,100.00
2018-10-03T20:09:15.575Z,100.00
2018-10-03T20:11:45.500Z,100.00
2018-10-03T20:14:15.038Z,100.00
2018-10-03T20:16:44.933Z,100.00
2018-10-03T20:19:14.342Z,100.00
2018-10-03T20:21:45.707Z,100.00
2018-10-03T20:24:17.328Z,100.00
2018-10-03T20:26:46.774Z,100.00
2018-10-03T20:29:16.577Z,100.00
2018-10-03T20:31:46.407Z,100.00
2018-10-03T20:34:15.923Z,100.00
2018-10-03T20:36:45.449Z,100.00
2018-10-03T20:39:16.088Z,100.00
2018-10-03T20:41:51.941Z,100.00
2018-10-03T20:44:21.238Z,100.00
2018-10-03T20:46:57.204Z,100.00
2018-10-03T20:49:26.496Z,100.00
2018-10-03T20:51:55.872Z,100.00
2018-10-03T20:54:25.284Z,100.00
2018-10-03T20:56:56.653Z,100.00
2018-10-03T20:59:25.946Z,100.00
2018-10-03T21:01:55.406Z,100.00
2018-10-03T21:04:24.793Z,100.00
2018-10-03T21:06:54.130Z,100.00
2018-10-03T21:09:23.440Z,100.00
2018-10-03T21:11:52.866Z,100.00
2018-10-03T21:14:22.213Z,100.00
2018-10-03T21:16:51.700Z,100.00
2018-10-03T21:19:21.328Z,100.00
2018-10-03T21:21:50.919Z,100.00
2018-10-03T21:24:20.350Z,100.00
2018-10-03T21:26:49.992Z,100.00
2018-10-03T21:29:19.739Z,100.00
2018-10-03T21:31:49.437Z,100.00
2018-10-03T21:34:20.148Z,100.00
2018-10-03T21:36:49.689Z,100.00
2018-10-03T21:39:19.461Z,100.00
2018-10-03T21:41:49.517Z,100.00
2018-10-03T21:44:19.393Z,100.00
2018-10-03T21:46:49.149Z,100.00
2018-10-03T21:49:18.844Z,100.00
2018-10-03T21:51:48.634Z,100.00
2018-10-03T21:54:18.462Z,100.00
2018-10-03T21:56:48.157Z,100.00
2018-10-03T21:59:17.894Z,100.00
2018-10-03T22:01:47.423Z,100.00
2018-10-03T22:04:17.204Z,100.00
2018-10-03T22:06:46.853Z,100.00
2018-10-03T22:09:16.846Z,100.00
2018-10-03T22:11:46.522Z,100.00
2018-10-03T22:14:16.462Z,100.00
2018-10-03T22:16:46.212Z,100.00
2018-10-03T22:19:15.918Z,100.00
2018-10-03T22:21:45.659Z,100.00
2018-10-03T22:24:15.696Z,100.00
2018-10-03T22:26:45.596Z,100.00
2018-10-03T22:29:15.584Z,100.00
2018-10-03T22:31:45.315Z,100.00
2018-10-03T22:34:14.916Z,100.00
2018-10-03T22:36:44.621Z,100.00
2018-10-03T22:39:14.199Z,100.00
2018-10-03T22:41:43.748Z,100.00
2018-10-03T22:44:13.380Z,100.00
2018-10-03T22:46:42.851Z,100.00
2018-10-03T22:49:12.200Z,100.00
2018-10-03T22:51:41.502Z,100.00
2018-10-03T22:54:10.906Z,100.00
2018-10-03T22:56:40.227Z,100.00
2018-10-03T22:59:09.669Z,100.00
2018-10-03T23:01:38.968Z,100.00
2018-10-03T23:04:08.425Z,100.00
2018-10-03T23:06:37.777Z,100.00
2018-10-03T23:09:08.146Z,100.00
2018-10-03T23:11:37.882Z,100.00
2018-10-03T23:14:07.331Z,100.00
2018-10-03T23:16:36.840Z,100.00
2018-10-03T23:19:06.231Z,100.00
2018-10-03T23:21:35.698Z,100.00
2018-10-03T23:24:05.235Z,100.00
2018-10-03T23:26:34.851Z,100.00
2018-10-03T23:29:04.472Z,100.00
2018-10-03T23:31:34.125Z,100.00
2018-10-03T23:34:03.452Z,100.00
2018-10-03T23:36:32.743Z,100.00
2018-10-03T23:39:02.013Z,100.00
2018-10-03T23:41:31.279Z,100.00
2018-10-03T23:44:00.537Z,100.00
2018-10-03T23:46:29.854Z,100.00
2018-10-03T23:48:59.162Z,100.00
2018-10-03T23:51:28.487Z,100.00
2018-10-03T23:53:57.843Z,100.00
2018-10-03T23:56:27.200Z,100.00
2018-10-03T23:58:56.603Z,100.00
